Time;durP1;ratioP1;P1;durP2;ratioP2;P2;SDS_P1;SDS_P2;PMS_P1;PMS_P2;Temp;Humidity;BMP_temperature;BMP_pressure;BME280_temperature;BME280_humidity;BME280_pressure;Samples;Min_cycle;Max_cycle;Signal;HPM_P1;HPM_P2
2021/10/29 00:01:54;;;;;;;12.52;7.93;;;;;;;-142.75;100.00;76869.50;5026744;28;20035;-66
2021/10/29 00:04:19;;;;;;;12.13;7.63;;;;;;;-142.75;100.00;76869.50;5028253;28;20398;-66
2021/10/29 00:06:44;;;;;;;19.20;8.15;;;;;;;-142.75;100.00;76857.69;5027511;28;20025;-66
2021/10/29 00:09:10;;;;;;;12.20;8.02;;;;;;;-142.75;100.00;76865.56;5026945;28;20033;-66
2021/10/29 00:11:35;;;;;;;11.13;7.57;;;;;;;-142.75;100.00;76857.69;5026157;28;20532;-66
2021/10/29 00:14:01;;;;;;;15.80;7.68;;;;;;;-142.75;100.00;76841.94;5027507;28;20545;-66
2021/10/29 00:16:26;;;;;;;12.18;8.00;;;;;;;-142.75;100.00;76838.00;5027021;28;20025;-66
2021/10/29 00:18:51;;;;;;;12.85;7.95;;;;;;;-142.75;100.00;76834.06;5027018;28;20031;-66
2021/10/29 00:21:16;;;;;;;11.68;7.88;;;;;;;-142.75;100.00;76838.00;5026184;28;20025;-66
2021/10/29 00:23:42;;;;;;;11.52;7.72;;;;;;;-142.75;100.00;76832.09;5027090;28;20465;-66
2021/10/29 00:26:07;;;;;;;12.98;7.30;;;;;;;-142.75;100.00;76816.34;5026948;28;20076;-66
2021/10/29 00:28:32;;;;;;;12.07;8.30;;;;;;;-142.75;100.00;76816.34;5026741;28;20017;-66
2021/10/29 00:30:58;;;;;;;12.75;7.00;;;;;;;-142.75;100.00;76804.53;5025927;28;20029;-66
2021/10/29 00:33:23;;;;;;;12.93;7.82;;;;;;;-142.75;100.00;76806.50;5027323;28;20028;-66
2021/10/29 00:35:48;;;;;;;13.65;7.40;;;;;;;-142.75;100.00;76798.66;5026952;28;20045;-66
2021/10/29 00:38:14;;;;;;;12.90;7.15;;;;;;;-142.75;100.00;76796.69;5026679;28;20448;-66
2021/10/29 00:40:39;;;;;;;9.98;6.70;;;;;;;-142.75;100.00;76782.91;5026414;28;20037;-66
2021/10/29 00:43:09;;;;;;;13.50;6.72;;;;;;;-142.75;100.00;76790.78;5027305;28;20445;-66
2021/10/29 00:45:36;;;;;;;10.88;7.03;;;;;;;-142.75;100.00;76788.81;5026804;28;20025;-66
2021/10/29 00:48:02;;;;;;;12.55;7.10;;;;;;;-142.75;100.00;76777.00;5025490;28;20033;-66
2021/10/29 00:50:27;;;;;;;;;;;;;;;-142.75;100.00;76773.06;5025351;28;20025;-66
2021/10/29 00:52:53;;;;;;;11.05;6.78;;;;;;;-142.75;100.00;76773.06;5026596;28;20386;-66
2021/10/29 00:55:20;;;;;;;11.70;7.18;;;;;;;-142.75;100.00;76771.09;5026545;28;20648;-66
2021/10/29 00:57:46;;;;;;;16.65;6.88;;;;;;;-142.75;100.00;76767.16;5020887;28;20029;-67
2021/10/29 01:00:12;;;;;;;12.18;7.00;;;;;;;-142.75;100.00;76763.22;5006373;28;20473;-67
2021/10/29 01:02:38;;;;;;;10.27;6.90;;;;;;;-142.75;100.00;76755.34;5007523;28;20022;-66
2021/10/29 01:05:04;;;;;;;12.85;7.10;;;;;;;-142.75;100.00;76751.41;5007125;28;20033;-66
2021/10/29 01:07:31;;;;;;;12.05;6.60;;;;;;;-142.75;100.00;76755.34;5007032;28;20144;-66
2021/10/29 01:09:56;;;;;;;9.90;6.35;;;;;;;-142.75;100.00;76757.31;5009514;28;20052;-66
2021/10/29 01:12:22;;;;;;;8.50;6.30;;;;;;;-142.75;100.00;76759.28;5010972;28;20120;-66
2021/10/29 01:14:55;;;;;;;13.20;7.30;;;;;;;-142.75;100.00;76755.34;5010441;28;20395;-66
2021/10/29 01:17:20;;;;;;;10.52;5.95;;;;;;;-142.75;100.00;76751.41;5010863;28;20495;-66
2021/10/29 01:19:53;;;;;;;11.38;6.28;;;;;;;-142.75;100.00;76751.41;5010641;28;20119;-66
2021/10/29 01:22:20;;;;;;;11.35;6.22;;;;;;;-142.75;100.00;76759.28;5010851;28;20022;-66
2021/10/29 01:24:46;;;;;;;10.27;6.07;;;;;;;-142.75;100.00;76755.34;5011237;28;20108;-66
2021/10/29 01:27:12;;;;;;;;;;;;;;;-142.75;100.00;76745.50;5010810;28;20025;-66
2021/10/29 01:29:38;;;;;;;11.70;6.10;;;;;;;-142.75;100.00;76743.53;5010692;28;19913;-66
2021/10/29 01:32:05;;;;;;;;;;;;;;;-142.75;100.00;76739.59;5010609;28;20509;-66
2021/10/29 01:34:32;;;;;;;10.45;6.57;;;;;;;-142.75;100.00;76745.50;5010820;28;19924;-66
2021/10/29 01:36:58;;;;;;;9.20;5.97;;;;;;;-142.75;100.00;76731.72;5010751;28;20034;-66
2021/10/29 01:39:23;;;;;;;10.20;6.25;;;;;;;-142.75;100.00;76727.78;5010595;28;20030;-66
2021/10/29 01:41:49;;;;;;;12.68;6.60;;;;;;;-142.75;100.00;76712.03;5009582;28;20021;-66
2021/10/29 01:44:14;;;;;;;9.43;5.40;;;;;;;-142.75;100.00;76715.97;5010989;28;20497;-66
2021/10/29 01:46:40;;;;;;;11.57;5.97;;;;;;;-142.75;100.00;76725.81;4993239;28;20277;-66
2021/10/29 01:49:05;;;;;;;10.15;6.03;;;;;;;-142.75;100.00;76714.00;5010446;28;20284;-66
2021/10/29 01:51:31;;;;;;;11.57;6.85;;;;;;;-142.75;100.00;76708.09;5009538;28;20034;-66
2021/10/29 01:53:56;;;;;;;10.27;5.65;;;;;;;-142.75;100.00;76712.03;5010420;28;20480;-66
2021/10/29 01:56:22;;;;;;;9.95;5.68;;;;;;;-142.75;100.00;76719.91;5010346;28;20108;-66
2021/10/29 01:58:48;;;;;;;12.57;5.43;;;;;;;-142.75;100.00;76719.91;5010464;28;20026;-66
2021/10/29 02:01:13;;;;;;;11.80;6.13;;;;;;;-142.75;100.00;76704.16;4991593;28;20018;-66
2021/10/29 02:03:39;;;;;;;12.10;6.43;;;;;;;-142.75;100.00;76708.09;5010725;28;20026;-66
2021/10/29 02:06:04;;;;;;;9.05;6.18;;;;;;;-142.75;100.00;76704.16;5010084;28;20542;-66
2021/10/29 02:08:30;;;;;;;9.15;6.10;;;;;;;-142.75;100.00;76696.28;5010136;28;20033;-65
2021/10/29 02:10:55;;;;;;;12.23;6.10;;;;;;;-142.75;100.00;76696.28;5009149;28;20036;-66
2021/10/29 02:13:22;;;;;;;13.10;5.95;;;;;;;-142.75;100.00;76694.31;5010552;28;20022;-66
2021/10/29 02:15:48;;;;;;;10.98;6.43;;;;;;;-142.75;100.00;76688.41;5010283;28;20025;-65
2021/10/29 02:18:14;;;;;;;8.95;5.88;;;;;;;-142.75;100.00;76692.34;5009889;28;20018;-65
2021/10/29 02:20:39;;;;;;;10.35;6.55;;;;;;;-142.75;100.00;76694.31;5008251;28;20032;-66
2021/10/29 02:23:04;;;;;;;10.45;6.63;;;;;;;-142.75;100.00;76692.34;5009885;28;20042;-66
2021/10/29 02:25:30;;;;;;;10.07;6.35;;;;;;;-142.75;100.00;76688.41;5009500;28;20046;-67
2021/10/29 02:27:55;;;;;;;13.93;6.78;;;;;;;-142.75;100.00;76668.72;5009842;28;20390;-66
2021/10/29 02:30:20;;;;;;;8.20;5.93;;;;;;;-142.75;100.00;76692.34;5008959;28;20040;-66
2021/10/29 02:32:46;;;;;;;10.30;6.03;;;;;;;-142.75;100.00;76698.25;5010013;28;20104;-66
2021/10/29 02:35:11;;;;;;;10.85;6.38;;;;;;;-142.75;100.00;76702.19;5009578;28;20113;-66
2021/10/29 02:37:36;;;;;;;13.45;7.22;;;;;;;-142.75;100.00;76696.28;5009884;28;20037;-66
2021/10/29 02:40:03;;;;;;;10.80;5.32;;;;;;;-142.75;100.00;76694.31;5008779;28;20017;-66
2021/10/29 02:42:28;;;;;;;;;;;;;;;-142.75;100.00;76696.28;5009680;28;20021;-66
2021/10/29 02:44:53;;;;;;;12.50;6.32;;;;;;;-142.75;100.00;76688.41;5013044;28;19967;-65
2021/10/29 02:47:18;;;;;;;10.63;5.90;;;;;;;-142.75;100.00;76692.34;5029079;28;20460;-66
2021/10/29 02:49:44;;;;;;;9.85;5.80;;;;;;;-142.75;100.00;76688.41;5028668;28;20033;-66
2021/10/29 02:52:09;;;;;;;9.93;5.93;;;;;;;-142.75;100.00;76684.47;5028564;28;20029;-65
2021/10/29 02:54:35;;;;;;;10.45;6.00;;;;;;;-142.75;100.00;76684.47;5028903;28;20367;-66
2021/10/29 02:57:00;;;;;;;10.57;6.38;;;;;;;-142.75;100.00;76686.44;5028856;28;20049;-66
2021/10/29 02:59:25;;;;;;;10.85;6.22;;;;;;;-142.75;100.00;76686.44;5028738;28;20443;-66
2021/10/29 03:01:50;;;;;;;12.60;6.23;;;;;;;-142.75;100.00;76688.41;5027949;28;20026;-66
2021/10/29 03:04:16;;;;;;;9.57;6.10;;;;;;;-142.75;100.00;76680.53;5029068;28;20298;-66
2021/10/29 03:06:42;;;;;;;10.48;5.95;;;;;;;-142.75;100.00;76696.28;5028992;28;20280;-66
2021/10/29 03:09:07;;;;;;;11.98;6.20;;;;;;;-142.75;100.00;76688.41;5028525;28;20483;-66
2021/10/29 03:11:33;;;;;;;11.65;6.03;;;;;;;-142.75;100.00;76684.47;5026277;28;20037;-66
2021/10/29 03:13:58;;;;;;;10.00;5.57;;;;;;;-142.75;100.00;76680.53;5029060;28;20115;-66
2021/10/29 03:16:23;;;;;;;9.23;5.82;;;;;;;-142.75;100.00;76692.34;5028550;28;20376;-65
2021/10/29 03:18:48;;;;;;;9.98;5.97;;;;;;;-142.75;100.00;76688.41;5028540;28;20029;-66
2021/10/29 03:21:14;;;;;;;10.50;6.07;;;;;;;-142.75;100.00;76692.34;5027275;28;20021;-65
2021/10/29 03:23:39;;;;;;;10.00;5.70;;;;;;;-142.75;100.00;76688.41;5028559;28;20026;-66
2021/10/29 03:26:05;;;;;;;10.93;6.80;;;;;;;-142.75;100.00;76672.66;5028380;28;20029;-66
2021/10/29 03:28:30;;;;;;;10.10;6.78;;;;;;;-142.75;100.00;76680.53;5028242;28;20111;-66
2021/10/29 03:30:56;;;;;;;11.27;6.70;;;;;;;-142.75;100.00;76684.47;5027149;28;20033;-66
2021/10/29 03:33:21;;;;;;;15.05;6.32;;;;;;;-142.75;100.00;76682.50;5028355;28;20037;-66
2021/10/29 03:35:46;;;;;;;9.77;6.18;;;;;;;-142.75;100.00;76680.53;5027254;28;20094;-66
2021/10/29 03:40:59;;;;;;;11.60;6.22;;;;;;;-142.75;100.00;76660.84;5026684;28;20032;-66
2021/10/29 03:43:34;;;;;;;11.95;6.43;;;;;;;-142.75;100.00;76676.59;5027824;28;20396;-66
2021/10/29 03:46:03;;;;;;;9.38;6.38;;;;;;;-142.75;100.00;76674.63;5027442;28;20431;-65
2021/10/29 03:51:12;;;;;;;11.85;6.45;;;;;;;-142.75;100.00;76692.34;5026620;28;20025;-66
2021/10/29 03:56:19;;;;;;;13.10;6.43;;;;;;;-142.75;100.00;76680.53;5027366;28;20033;-66
2021/10/29 03:58:46;;;;;;;14.43;6.18;;;;;;;-142.75;100.00;76696.28;5027341;28;20080;-65
2021/10/29 04:01:12;;;;;;;10.57;6.18;;;;;;;-142.75;100.00;76690.38;5025952;28;20800;-66
2021/10/29 04:03:37;;;;;;;11.57;6.30;;;;;;;-142.75;100.00;76688.41;5027780;28;20049;-66
2021/10/29 04:06:02;;;;;;;9.88;6.45;;;;;;;-142.75;100.00;76678.56;5027305;28;20060;-66
2021/10/29 04:08:28;;;;;;;10.90;5.65;;;;;;;-142.75;100.00;76682.50;5027279;28;20061;-65
2021/10/29 04:10:55;;;;;;;9.45;6.35;;;;;;;-142.75;100.00;76682.50;5025921;28;20029;-65
2021/10/29 04:13:21;;;;;;;12.00;6.20;;;;;;;-142.75;100.00;76678.56;5027407;28;20033;-65
2021/10/29 04:15:46;;;;;;;10.53;5.87;;;;;;;-142.75;100.00;76680.53;5027544;28;20036;-66
2021/10/29 04:18:11;;;;;;;11.13;6.50;;;;;;;-142.75;100.00;76674.63;5026784;28;20284;-66
2021/10/29 04:20:37;;;;;;;11.87;6.00;;;;;;;-142.75;100.00;76660.84;5024724;28;20276;-66
2021/10/29 04:23:03;;;;;;;10.60;6.10;;;;;;;-142.75;100.00;76664.78;5009051;28;20269;-65
2021/10/29 04:25:28;;;;;;;11.75;6.13;;;;;;;-142.75;100.00;76674.63;5007401;28;20029;-66
2021/10/29 04:27:59;;;;;;;10.38;6.00;;;;;;;-142.75;100.00;76674.63;5007465;28;20022;-67
2021/10/29 04:30:28;;;;;;;10.77;6.25;;;;;;;-142.75;100.00;76660.84;5006588;28;20026;-66
2021/10/29 04:32:54;;;;;;;9.45;5.75;;;;;;;-142.75;100.00;76668.72;5007250;28;20022;-66
2021/10/29 04:35:19;;;;;;;11.15;5.47;;;;;;;-142.75;100.00;76660.84;5007216;28;20079;-66
2021/10/29 04:37:44;;;;;;;11.88;6.22;;;;;;;-142.75;100.00;76656.91;5007871;28;20022;-66
2021/10/29 04:40:10;;;;;;;11.18;6.13;;;;;;;-142.75;100.00;76645.09;5006523;28;20533;-66
2021/10/29 04:42:38;;;;;;;12.02;5.90;;;;;;;-142.75;100.00;76645.09;5007172;28;20036;-65
2021/10/29 04:45:05;;;;;;;10.85;6.05;;;;;;;-142.75;100.00;76652.97;5010428;28;20028;-66
2021/10/29 04:47:30;;;;;;;15.35;5.70;;;;;;;-142.75;100.00;76651.00;5010996;28;20034;-66
2021/10/29 04:49:56;;;;;;;9.25;5.50;;;;;;;-142.75;100.00;76658.88;5010311;28;20032;-66
2021/10/29 04:52:21;;;;;;;11.32;5.78;;;;;;;-142.75;100.00;76647.06;4993191;28;20112;-66
2021/10/29 04:54:46;;;;;;;10.60;5.93;;;;;;;-142.75;100.00;76651.00;5011266;28;20033;-66
2021/10/29 04:57:12;;;;;;;10.25;6.20;;;;;;;-142.75;100.00;76654.94;5010284;28;20029;-65
2021/10/29 04:59:37;;;;;;;10.30;5.97;;;;;;;-142.75;100.00;76645.09;5010643;28;20033;-65
2021/10/29 05:02:02;;;;;;;14.90;6.10;;;;;;;-142.75;100.00;76664.78;5010332;28;20076;-66
2021/10/29 05:04:28;;;;;;;9.55;6.10;;;;;;;-142.75;100.00;76656.91;5010992;28;20291;-65
2021/10/29 05:06:53;;;;;;;11.30;5.18;;;;;;;-142.75;100.00;76649.03;5010916;28;20112;-65
2021/10/29 05:09:18;;;;;;;11.50;5.90;;;;;;;-142.75;100.00;76656.91;5010608;28;20112;-66
2021/10/29 05:11:43;;;;;;;11.70;6.53;;;;;;;-142.75;100.00;76654.94;5009752;28;20053;-66
2021/10/29 05:14:09;;;;;;;10.65;5.65;;;;;;;-142.75;100.00;76639.19;5010859;28;20026;-65
2021/10/29 05:16:34;;;;;;;8.27;5.97;;;;;;;-142.75;100.00;76641.16;5010518;28;20030;-66
2021/10/29 05:18:59;;;;;;;10.43;5.40;;;;;;;-142.75;100.00;76637.22;5010416;28;20048;-65
2021/10/29 05:21:25;;;;;;;13.27;6.13;;;;;;;-142.75;100.00;76637.22;5027031;22;20044;-70
2021/10/29 05:23:50;;;;;;;11.93;5.22;;;;;;;-142.75;100.00;76651.00;5010435;28;20414;-69
2021/10/29 05:26:15;;;;;;;9.52;5.72;;;;;;;-142.75;100.00;76643.13;5010050;28;20037;-69
2021/10/29 05:28:41;;;;;;;11.55;5.60;;;;;;;-142.75;100.00;76643.13;5010537;28;20018;-70
2021/10/29 05:31:06;;;;;;;8.18;5.10;;;;;;;-142.75;100.00;76645.09;4991639;28;20051;-69
2021/10/29 05:33:32;;;;;;;11.43;5.68;;;;;;;-142.75;100.00;76649.03;5010410;28;20032;-70
2021/10/29 05:35:57;;;;;;;10.90;6.20;;;;;;;-142.75;100.00;76645.09;5003638;28;20025;-71
2021/10/29 05:38:23;;;;;;;9.43;5.35;;;;;;;-142.75;100.00;76645.09;5012398;28;20036;-70
2021/10/29 05:40:48;;;;;;;9.38;5.57;;;;;;;-142.75;100.00;76635.25;5029042;28;20033;-74
2021/10/29 05:43:14;;;;;;;9.18;5.55;;;;;;;-142.75;100.00;76641.16;5029451;28;20379;-69
2021/10/29 05:45:39;;;;;;;9.95;5.35;;;;;;;-142.75;100.00;76639.19;5011589;28;20025;-69
2021/10/29 05:48:06;;;;;;;8.07;5.22;;;;;;;-142.75;100.00;76637.22;5029554;28;20048;-70
2021/10/29 05:50:33;;;;;;;14.10;5.80;;;;;;;-142.75;100.00;76637.22;5028440;28;20033;-70
2021/10/29 05:53:01;;;;;;;12.15;6.03;;;;;;;-142.75;100.00;76635.25;5017637;28;20120;-69
2021/10/29 05:55:26;;;;;;;10.85;6.00;;;;;;;-142.75;100.00;76627.38;5009333;28;20025;-70
2021/10/29 05:57:53;;;;;;;11.82;5.60;;;;;;;-142.75;100.00;76629.34;5009651;28;20042;-69
2021/10/29 06:00:22;;;;;;;14.10;4.93;;;;;;;-142.75;100.00;76621.47;5008863;28;20025;-67
2021/10/29 06:02:47;;;;;;;12.20;5.80;;;;;;;-142.75;100.00;76601.78;5009848;28;20022;-71
2021/10/29 06:05:13;;;;;;;8.85;5.30;;;;;;;-142.75;100.00;76609.66;4993144;28;20080;-69
2021/10/29 06:07:39;;;;;;;;;;;;;;;-142.75;100.00;76613.59;5023397;28;20488;-70
2021/10/29 06:10:07;;;;;;;9.15;5.05;;;;;;;-142.75;100.00;76613.59;5020915;28;19920;-68
2021/10/29 06:12:35;;;;;;;9.82;5.50;;;;;;;-142.75;100.00;76605.72;5002184;28;20057;-69
2021/10/29 06:15:01;;;;;;;9.95;4.78;;;;;;;-142.75;100.00;76597.84;5020081;28;20025;-69
2021/10/29 06:17:28;;;;;;;11.15;5.28;;;;;;;-142.75;100.00;76593.91;4997725;28;20083;-69
2021/10/29 06:19:53;;;;;;;9.85;5.43;;;;;;;-142.75;100.00;76591.94;5017461;28;20017;-69
2021/10/29 06:22:23;;;;;;;8.90;5.70;;;;;;;-142.75;100.00;76591.94;5020504;28;20116;-69
2021/10/29 06:24:49;;;;;;;10.18;5.57;;;;;;;-142.75;100.00;76586.03;4996356;28;20021;-68
2021/10/29 06:29:43;;;;;;;10.65;5.35;;;;;;;-142.75;100.00;76580.13;5015248;28;20030;-70
2021/10/29 06:32:10;;;;;;;13.18;5.35;;;;;;;-142.75;100.00;76574.22;5012388;28;20029;-69
2021/10/29 06:34:36;;;;;;;9.73;5.22;;;;;;;-142.75;100.00;76584.06;5016687;28;20084;-69
2021/10/29 06:37:04;;;;;;;9.98;5.10;;;;;;;-142.75;100.00;76572.25;5021760;28;20495;-72
2021/10/29 06:39:30;;;;;;;12.82;5.18;;;;;;;-142.75;100.00;76558.47;5017326;28;20073;-68
2021/10/29 06:41:56;;;;;;;15.35;5.38;;;;;;;-142.75;100.00;76562.41;4997204;28;20379;-68
2021/10/29 06:44:37;;;;;;;8.25;4.80;;;;;;;-142.75;100.00;76558.47;5020212;28;20044;-69
2021/10/29 07:00:37;;;;;;;9.15;4.65;;;;;;;-142.75;100.00;76503.38;5011352;28;20041;-69
2021/10/29 07:03:54;;;;;;;12.65;4.88;;;;;;;-142.75;100.00;76487.63;5017517;28;20029;-70
2021/10/29 07:41:27;;;;;;;9.90;6.07;;;;;;;-142.75;94.35;76330.16;5005590;28;20659;-68
2021/10/29 07:44:00;;;;;;;7.35;5.13;;;;;;;-142.75;93.45;76308.50;5006956;28;20025;-67
2021/10/29 07:46:28;;;;;;;7.72;4.57;;;;;;;-142.75;92.95;76310.47;5005085;28;20034;-70
2021/10/29 07:48:53;;;;;;;8.50;4.65;;;;;;;-142.75;92.17;76292.75;4988807;28;20028;-67
2021/10/29 07:51:19;;;;;;;8.35;4.43;;;;;;;-142.75;91.30;76278.97;5004376;28;20033;-69
2021/10/29 07:53:44;;;;;;;;;;;;;;;-142.75;90.46;76275.03;5027156;28;20395;-69
2021/10/29 07:56:10;;;;;;;12.85;4.72;;;;;;;-142.75;90.95;76259.28;5026331;28;20378;-69
2021/10/29 07:58:35;;;;;;;10.50;4.68;;;;;;;-142.75;89.83;76245.50;5005382;28;20271;-69
2021/10/29 08:01:02;;;;;;;9.38;4.35;;;;;;;-142.75;88.96;76245.50;5021821;28;20052;-70
2021/10/29 08:03:27;;;;;;;;;;;;;;;-142.75;89.69;76239.59;5015070;28;20029;-70
2021/10/29 08:05:53;;;;;;;9.27;4.10;;;;;;;-142.75;89.36;76255.34;5010982;28;19948;-69
2021/10/29 08:08:19;;;;;;;8.23;4.43;;;;;;;-142.75;89.66;76237.63;5026530;28;20049;-68
2021/10/29 08:10:45;;;;;;;;;;;;;;;-142.75;88.60;76223.84;5020335;28;20026;-69
2021/10/29 08:13:11;;;;;;;8.25;4.63;;;;;;;-142.75;88.05;76194.34;5004732;28;19917;-69
2021/10/29 08:15:37;;;;;;;9.30;4.10;;;;;;;-142.75;86.62;76184.50;5002690;28;20052;-70
2021/10/29 08:18:07;;;;;;;8.75;4.50;;;;;;;-142.75;85.38;76170.72;5006450;28;20026;-74
2021/10/29 08:20:37;;;;;;;8.82;4.32;;;;;;;-142.75;84.53;76153.00;5021007;28;20390;-70
2021/10/29 08:23:09;;;;;;;10.70;4.57;;;;;;;-142.75;83.64;76117.56;5020362;28;20022;-69
2021/10/29 08:25:35;;;;;;;8.57;4.32;;;;;;;-142.75;83.37;76105.75;5010545;28;20434;-69
2021/10/29 08:28:00;;;;;;;8.45;4.30;;;;;;;-142.75;82.81;76103.78;5026136;28;20018;-68
2021/10/29 08:30:26;;;;;;;;;;;;;;;-142.75;82.96;76117.56;5022426;28;20038;-68
2021/10/29 08:32:51;;;;;;;8.80;4.57;;;;;;;-142.75;83.76;76093.94;5010208;28;20314;-69
2021/10/29 08:35:18;;;;;;;8.77;4.50;;;;;;;-142.75;83.09;76080.16;5010411;28;20399;-69
2021/10/29 08:37:46;;;;;;;8.77;4.60;;;;;;;-142.75;81.99;76062.47;5010692;28;20033;-70
2021/10/29 08:40:11;;;;;;;8.55;4.38;;;;;;;-142.75;81.27;76048.69;5008991;28;20072;-70
2021/10/29 08:42:38;;;;;;;8.88;5.57;;;;;;;-142.75;82.45;76074.25;4993676;28;20026;-68
2021/10/29 08:45:06;;;;;;;8.88;4.78;;;;;;;-142.75;82.92;76050.66;5012119;28;20029;-68
2021/10/29 08:47:37;;;;;;;10.10;4.75;;;;;;;-142.75;82.36;76048.69;5003320;28;20040;-72
2021/10/29 08:50:08;;;;;;;8.57;4.40;;;;;;;-142.75;82.69;76038.84;5012187;28;20025;-69
2021/10/29 08:52:34;;;;;;;6.13;4.05;;;;;;;-142.75;82.36;76034.91;5023875;28;20491;-70
2021/10/29 08:55:01;;;;;;;7.10;4.28;;;;;;;-142.75;82.20;76030.97;5017462;28;20029;-70
2021/10/29 08:57:28;;;;;;;9.82;4.25;;;;;;;-142.75;81.36;76007.34;5021200;28;20045;-70
2021/10/29 08:59:55;;;;;;;14.13;4.95;;;;;;;-142.75;81.02;75983.72;5009660;28;20479;-70
2021/10/29 09:02:33;;;;;;;8.25;4.38;;;;;;;-142.75;79.89;75973.88;5018815;28;20500;-69
2021/10/29 09:05:10;;;;;;;8.73;4.82;;;;;;;-142.75;79.57;75985.69;5019394;28;20032;-70
2021/10/29 09:07:59;;;;;;;8.30;4.47;;;;;;;-142.75;79.44;75958.16;5016010;28;20474;-70
2021/10/29 09:35:28;;;;;;;8.20;3.67;;;;;;;-142.75;74.82;75816.44;5018516;28;20033;-72
2021/10/29 09:38:06;;;;;;;7.28;3.90;;;;;;;-142.75;73.61;75786.91;5024033;28;20429;-72
2021/10/29 09:40:34;;;;;;;5.82;3.53;;;;;;;-142.75;73.01;75786.91;5024427;28;20030;-73
2021/10/29 09:43:12;;;;;;;7.78;4.00;;;;;;;-142.75;73.02;75771.16;5021812;28;20025;-73
2021/10/29 09:45:38;;;;;;;7.35;3.67;;;;;;;-142.75;72.07;75781.00;5004962;28;20040;-72
2021/10/29 09:48:14;;;;;;;7.03;3.88;;;;;;;-142.75;71.78;75737.72;5023583;28;20025;-72
2021/10/29 09:50:52;;;;;;;7.25;3.50;;;;;;;-142.75;71.32;75771.16;5022567;28;20084;-70
2021/10/29 09:58:51;;;;;;;8.95;3.83;;;;;;;-142.75;70.22;75741.66;5017977;28;20040;-73
2021/10/29 10:01:25;;;;;;;9.73;3.80;;;;;;;-142.75;71.21;75777.06;5003506;28;20076;-72
2021/10/29 10:03:51;;;;;;;8.45;3.72;;;;;;;-142.75;71.80;75786.91;5024145;28;20034;-75
2021/10/29 10:06:20;;;;;;;8.68;3.63;;;;;;;-142.75;72.24;75781.00;5014728;28;20113;-72
2021/10/29 10:08:46;;;;;;;7.90;3.78;;;;;;;-142.75;72.34;75771.16;5021443;28;20507;-73
2021/10/29 10:11:14;;;;;;;8.48;3.70;;;;;;;-142.75;71.87;75779.03;5024313;28;20449;-72
2021/10/29 10:13:41;;;;;;;8.93;3.50;;;;;;;-142.75;71.59;75794.78;5021516;28;20037;-72
2021/10/29 10:16:08;;;;;;;10.82;3.55;;;;;;;-142.75;72.48;75731.81;5020746;28;20059;-72
2021/10/29 10:18:34;;;;;;;8.73;3.92;;;;;;;-142.75;71.97;75704.25;5020106;28;20029;-72
2021/10/29 10:21:03;;;;;;;8.90;4.05;;;;;;;-142.75;71.70;75731.81;5014002;28;20502;-70
2021/10/29 10:23:34;;;;;;;8.88;3.55;;;;;;;-142.75;72.64;75747.56;5029614;28;20039;-72
2021/10/29 10:48:39;;;;;;;10.63;3.38;;;;;;;-142.75;68.64;75613.72;5023240;28;21099;-72
2021/10/29 10:54:11;;;;;;;6.68;3.17;;;;;;;-142.75;67.69;75613.72;5015047;28;20038;-71
2021/10/29 10:57:05;;;;;;;10.05;3.53;;;;;;;-142.75;69.29;75590.13;4997611;28;20025;-72
2021/10/29 11:05:17;;;;;;;6.53;3.00;;;;;;;-142.75;67.77;75586.19;5009508;28;20041;-72
2021/10/29 11:10:14;;;;;;;;;;;;;;;-142.75;67.32;75580.28;5013781;28;20044;-71
2021/10/29 11:12:40;;;;;;;7.07;2.88;;;;;;;-142.75;67.50;75580.28;5010533;28;20383;-71
2021/10/29 11:15:07;;;;;;;;;;;;;;;-142.75;67.79;75546.81;4993179;28;20045;-72
2021/10/29 11:18:17;;;;;;;5.25;3.17;;;;;;;-142.75;67.43;75578.31;5010504;28;19913;-70
2021/10/29 11:20:48;;;;;;;6.45;3.38;;;;;;;-142.75;66.98;75584.22;5025592;28;20483;-71
2021/10/29 11:23:27;;;;;;;11.27;3.53;;;;;;;-142.75;67.35;75552.72;5024098;22;20388;-66
2021/10/29 11:26:07;;;;;;;12.18;3.50;;;;;;;-142.75;66.82;75503.53;5011926;28;20032;-67
2021/10/29 11:28:40;;;;;;;9.88;3.65;;;;;;;-142.75;66.17;75517.28;5028643;28;20112;-67
2021/10/29 11:31:12;;;;;;;7.20;3.65;;;;;;;-142.75;65.99;75499.59;5028249;28;20022;-67
2021/10/29 11:33:49;;;;;;;7.35;3.03;;;;;;;-142.75;66.04;75507.47;5009859;28;20505;-67
2021/10/29 11:36:18;;;;;;;5.68;3.13;;;;;;;-142.75;66.46;75505.50;5009813;28;20484;-67
2021/10/29 11:38:47;;;;;;;6.43;2.80;;;;;;;-142.75;65.14;75487.78;4992478;28;20040;-67
2021/10/29 11:41:16;;;;;;;7.45;3.22;;;;;;;-142.75;65.74;75495.66;5008766;28;20479;-66
2021/10/29 11:43:42;;;;;;;8.82;3.50;;;;;;;-142.75;65.56;75519.25;4992673;28;20399;-67
2021/10/29 11:46:11;;;;;;;6.50;3.25;;;;;;;-142.75;65.21;75509.44;5009627;28;20034;-66
2021/10/29 11:48:50;;;;;;;7.50;3.42;;;;;;;-142.75;66.17;75460.22;5010042;28;20037;-68
2021/10/29 11:51:16;;;;;;;7.00;3.17;;;;;;;-142.75;65.08;75475.97;5008768;28;20065;-67
2021/10/29 11:54:01;;;;;;;6.82;2.70;;;;;;;-142.75;65.58;75472.03;5019212;28;20044;-67
2021/10/29 11:56:38;;;;;;;8.70;3.17;;;;;;;-142.75;65.26;75475.97;5011582;28;20029;-67
2021/10/29 12:07:13;;;;;;;8.82;3.22;;;;;;;-142.75;64.82;75418.91;5008493;28;20128;-68
2021/10/29 12:09:39;;;;;;;5.53;2.88;;;;;;;-142.75;64.97;75414.97;5028803;28;20022;-68
2021/10/29 12:12:13;;;;;;;;;;;;;;;-142.75;63.61;75409.06;5011553;28;20028;-67
2021/10/29 12:14:41;;;;;;;7.28;3.28;;;;;;;-142.75;64.18;75393.31;5029479;28;20390;-67
2021/10/29 12:17:24;;;;;;;6.00;3.10;;;;;;;-142.75;63.55;75393.31;5029130;28;20025;-67
2021/10/29 12:19:54;;;;;;;8.27;3.03;;;;;;;-142.75;64.02;75409.06;5028252;28;20029;-67
2021/10/29 12:24:54;;;;;;;9.10;3.05;;;;;;;-142.75;64.00;75395.28;5021666;28;20061;-66
2021/10/29 12:27:24;;;;;;;7.45;3.05;;;;;;;-142.75;64.66;75381.50;5008323;28;20394;-68
2021/10/29 12:33:17;;;;;;;6.78;3.33;;;;;;;-142.75;63.88;75395.28;4970683;28;20033;-67
2021/10/29 12:39:06;;;;;;;6.97;2.83;;;;;;;-142.75;64.97;75422.84;5026826;28;20125;-66
2021/10/29 13:03:56;;;;;;;8.45;3.15;;;;;;;-142.75;70.48;75507.47;5024048;28;20029;-66
2021/10/29 13:06:21;;;;;;;9.70;3.50;;;;;;;-142.75;70.46;75483.84;5031949;28;20025;-66
2021/10/29 13:08:50;;;;;;;;;;;;;;;-142.75;70.54;75517.28;5032891;28;20536;-66
2021/10/29 13:11:16;;;;;;;7.28;3.28;;;;;;;-142.75;70.47;75536.97;5031249;28;20015;-66
2021/10/29 13:13:52;;;;;;;7.03;3.60;;;;;;;-142.75;70.91;75517.28;5032273;28;20032;-66
2021/10/29 13:16:18;;;;;;;7.30;3.08;;;;;;;-142.75;70.87;75529.09;5031995;28;20025;-67
2021/10/29 13:51:26;;;;;;;6.93;3.40;;;;;;;-142.75;74.60;75588.16;4978701;28;20041;-66
2021/10/29 14:16:21;;;;;;;11.10;3.22;;;;;;;-142.75;77.04;75601.91;5007672;28;20034;-67
2021/10/29 14:31:46;;;;;;;5.53;2.78;;;;;;;-142.75;78.79;75670.81;5010191;28;20026;-65
2021/10/29 14:34:58;;;;;;;7.78;3.40;;;;;;;-142.75;79.99;75680.63;5010963;28;20105;-67
2021/10/29 14:37:02;;;;;;;9.25;3.20;;;;;;;-142.75;79.49;75676.69;4997085;28;20407;-68
2021/10/29 14:47:20;;;;;;;8.65;3.47;;;;;;;-142.75;92.26;75775.09;5030595;28;20029;-66
2021/10/29 15:05:46;;;;;;;10.45;4.05;;;;;;;-142.75;100.00;75962.09;5009856;28;20030;-68
2021/10/29 15:24:34;;;;;;;9.25;4.13;;;;;;;-142.75;100.00;75956.19;5010314;28;20069;-68
2021/10/29 15:29:25;;;;;;;10.98;3.80;;;;;;;-142.75;100.00;75942.41;5006587;28;20038;-68
2021/10/29 15:45:24;;;;;;;10.45;3.80;;;;;;;-142.75;100.00;75975.84;5008298;28;20091;-68
2021/10/29 15:48:04;;;;;;;9.82;3.63;;;;;;;-142.75;100.00;75964.03;5027629;28;20716;-68
2021/10/29 15:50:36;;;;;;;6.38;3.15;;;;;;;-142.75;100.00;75971.91;5008660;28;20638;-68
2021/10/29 15:53:07;;;;;;;6.47;2.88;;;;;;;-142.75;100.00;75989.63;5026543;28;20025;-67
2021/10/29 15:58:13;;;;;;;5.68;3.00;;;;;;;-142.75;100.00;75981.75;5026752;28;20037;-68
2021/10/29 16:00:51;;;;;;;5.70;2.42;;;;;;;-142.75;100.00;75979.78;5024181;28;20025;-68
2021/10/29 16:17:05;;;;;;;4.53;1.70;;;;;;;-142.75;100.00;76009.31;4927256;29;20050;-67
2021/10/29 16:19:32;;;;;;;5.07;1.77;;;;;;;-142.75;100.00;76027.03;4976226;28;20137;-67